Startpagina
METAR-TAF:

METAR-TAF

Vliegvelden :

Weeze, Duitsland

Flughafen Weeze

breedte: 51-36-09N, lengte: 006-08-32E, hoogte: 32 m

Actueel weer

Dit bericht is 29 minuten geleden gemaakt, om 18:50 UTC
Weinig wind
Temperatuur 22°C
Vochtigheid 43%
Druk 1015 hPa
Zicht 10 km of meer
geen wolken onder 1500 m en geen cumulonimbus

METAR: EDLV 221850Z 00000KT CAVOK 22/09 Q1015

Tijdstip: 21:19 (19:19 UTC)

Verwachting

Dit bericht is 2 uur en het 19 minuten geleden gemaakt, om 17:00 UTC
Verwachting geldig van 22 om 18 UTC tot 23 om 18 UTC
Wind 5 kt uit het oostzuidoosten
Zicht 10 km of meer
geen wolken onder 1500 m en geen cumulonimbus
Wijzigt naar
van 23 om 06 UTC tot 23 om 09 UTC
Wind 10 kt uit het westen

TAF: EDLV 221700Z 2218/2318 11005KT CAVOK BECMG 2306/2309 27010KT

Waarnemingen en weersverwachtingen van meer dan 4000 vliegvelden (METAR en TAF).

De beschikbare stations zijn de gele en rode punten op de kaart.

Ga met uw muis naar het station om de naam te zien.

Klik dan om waarnemingen en weersverwachtingen te zien.

kaart wijzigen: klik op de groene knoppen met een zwart kruis om in te zoomen, op de groene knop met een streepje om uit te zoomen of op de groene pijlen voor aangrenzende kaarten.


METAR-TAF: